Time;durP1;ratioP1;P1;durP2;ratioP2;P2;SDS_P1;SDS_P2;PMS_P1;PMS_P2;Temp;Humidity;BMP_temperature;BMP_pressure;BME280_temperature;BME280_humidity;BME280_pressure;Samples;Min_cycle;Max_cycle;Signal;HPM_P1;HPM_P2
2024/01/27 00:00:11;;;;;;;18.52;5.05;;;5.60;99.90;;;5.91;67.14;102319.47;4997328;28;20050;-80
2024/01/27 00:02:39;;;;;;;21.77;4.65;;;5.60;99.90;;;5.91;67.48;102318.59;4998612;28;20105;-80
2024/01/27 00:05:08;;;;;;;17.00;4.50;;;5.60;99.90;;;5.88;67.51;102318.84;4979279;28;20486;-80
2024/01/27 00:07:35;;;;;;;18.50;5.22;;;5.60;99.90;;;5.86;67.32;102326.94;4997295;28;20513;-79
2024/01/27 00:10:06;;;;;;;17.58;5.10;;;5.60;99.90;;;5.84;67.18;102333.31;5015383;28;20088;-80
2024/01/27 00:12:35;;;;;;;;;;;5.50;99.90;;;5.84;67.45;102335.97;4945289;28;20514;-80
2024/01/27 00:15:03;;;;;;;22.48;4.68;;;5.50;99.90;;;5.83;67.47;102342.25;5005348;28;20004;-80
2024/01/27 00:17:35;;;;;;;18.90;5.15;;;5.50;99.90;;;5.80;67.33;102335.38;5016531;28;20120;-80
2024/01/27 00:20:03;;;;;;;19.52;4.97;;;5.50;99.90;;;5.80;67.66;102340.69;5000346;28;20046;-80
2024/01/27 00:22:31;;;;;;;17.33;4.30;;;5.50;99.90;;;5.80;67.50;102332.75;5007847;28;20037;-80
2024/01/27 00:24:58;;;;;;;20.80;5.88;;;5.50;99.90;;;5.75;67.47;102329.66;4991047;28;20053;-80
2024/01/27 00:27:39;;;;;;;17.90;4.82;;;5.50;99.90;;;5.72;67.47;102335.25;4999006;28;20084;-80
2024/01/27 00:30:08;;;;;;;19.60;5.55;;;5.50;99.90;;;5.72;67.51;102332.59;5017468;28;20096;-80
2024/01/27 00:32:36;;;;;;;19.35;5.22;;;5.40;99.90;;;5.67;67.47;102337.44;5016535;28;20480;-80
2024/01/27 00:35:04;;;;;;;20.38;5.47;;;5.40;99.90;;;5.67;67.39;102337.44;4980255;28;20140;-80
2024/01/27 00:37:31;;;;;;;22.38;5.28;;;5.40;99.90;;;5.63;67.39;102352.75;4997434;28;20050;-80
2024/01/27 00:39:59;;;;;;;16.45;4.55;;;5.40;99.90;;;5.63;67.39;102355.41;4979532;28;20050;-80
2024/01/27 00:42:26;;;;;;;18.38;4.80;;;5.40;99.90;;;5.64;67.33;102358.88;5009062;28;20486;-80
2024/01/27 00:44:58;;;;;;;18.23;4.93;;;5.40;99.90;;;5.61;67.31;102360.00;5023766;28;20437;-80
2024/01/27 00:47:26;;;;;;;19.08;4.88;;;5.40;99.90;;;5.58;67.73;102364.72;5016596;28;20498;-80
2024/01/27 00:49:55;;;;;;;22.42;4.82;;;5.30;99.90;;;5.59;67.46;102366.38;5016634;28;20076;-80
2024/01/27 00:52:26;;;;;;;25.63;6.68;;;5.30;99.90;;;5.61;67.50;102370.59;5003698;28;20047;-80
2024/01/27 00:54:56;;;;;;;20.02;5.00;;;5.30;99.90;;;5.60;67.78;102368.03;5019098;28;20049;-80
2024/01/27 00:57:26;;;;;;;19.92;5.50;;;5.30;99.90;;;5.58;67.50;102372.66;4980857;28;20066;-80
2024/01/27 00:59:53;;;;;;;22.23;5.13;;;5.30;99.90;;;5.54;67.43;102366.78;4995937;28;20077;-79
2024/01/27 01:02:25;;;;;;;17.63;5.07;;;5.30;99.90;;;5.52;67.45;102374.00;5017301;28;20116;-80
2024/01/27 01:04:55;;;;;;;24.67;5.38;;;5.30;99.90;;;5.50;67.51;102370.66;5019039;28;20054;-80
2024/01/27 01:07:24;;;;;;;15.15;5.22;;;5.30;99.90;;;5.48;67.56;102366.47;5018692;28;20104;-80
2024/01/27 01:09:52;;;;;;;20.63;4.93;;;5.30;99.90;;;5.46;67.74;102371.03;5018952;28;20516;-80
2024/01/27 01:12:19;;;;;;;21.42;6.13;;;5.20;99.90;;;5.43;67.65;102362.41;5021830;28;20040;-80
2024/01/27 01:14:47;;;;;;;14.35;5.28;;;5.20;99.90;;;5.42;67.54;102368.66;4982782;28;20042;-80
2024/01/27 01:17:17;;;;;;;17.88;5.28;;;5.10;99.90;;;5.38;67.52;102369.91;4998384;28;20080;-80
2024/01/27 01:19:46;;;;;;;17.13;4.93;;;5.10;99.90;;;5.38;67.74;102372.53;4999335;28;20497;-80
2024/01/27 01:22:14;;;;;;;21.35;5.13;;;5.10;99.90;;;5.35;67.57;102369.31;5016622;28;20038;-80
2024/01/27 01:24:41;;;;;;;17.05;4.70;;;5.00;99.90;;;5.35;67.52;102364.00;5017115;28;20074;-80
2024/01/27 01:27:08;;;;;;;23.23;5.43;;;5.00;99.90;;;5.33;67.71;102365.97;4983773;28;20046;-80
2024/01/27 01:29:36;;;;;;;19.83;5.35;;;5.00;99.90;;;5.33;67.79;102363.31;4976103;28;20053;-80
2024/01/27 01:32:04;;;;;;;19.52;5.70;;;5.00;99.90;;;5.32;67.47;102366.91;5015840;28;20136;-80
2024/01/27 01:34:31;;;;;;;23.13;5.05;;;5.00;99.90;;;5.29;67.85;102367.19;5006475;28;20030;-80
2024/01/27 01:37:01;;;;;;;22.55;5.15;;;5.00;99.90;;;5.25;67.84;102363.13;4996005;28;20113;-80
2024/01/27 01:39:29;;;;;;;29.40;5.17;;;5.00;99.90;;;5.25;67.89;102365.75;4994782;28;20046;-80
2024/01/27 01:41:57;;;;;;;17.20;5.57;;;5.00;99.90;;;5.23;68.06;102368.56;4994768;28;20137;-80
2024/01/27 01:44:26;;;;;;;16.38;4.82;;;4.90;99.90;;;5.21;67.96;102375.75;5000286;28;20089;-80
2024/01/27 01:47:06;;;;;;;21.15;5.05;;;4.90;99.90;;;5.20;67.95;102378.53;4996859;28;20076;-80
2024/01/27 01:49:34;;;;;;;18.48;5.13;;;4.90;99.90;;;5.20;68.16;102374.09;5010120;28;20060;-80
2024/01/27 01:52:19;;;;;;;20.77;5.05;;;4.90;99.90;;;5.15;67.87;102373.63;5016531;28;20448;-80
2024/01/27 01:54:49;;;;;;;19.80;5.00;;;4.90;99.90;;;5.15;67.91;102374.47;5015476;28;20038;-80
2024/01/27 01:57:17;;;;;;;19.10;4.75;;;4.90;99.90;;;5.13;68.18;102373.78;5004960;28;20398;-80
2024/01/27 01:59:45;;;;;;;18.15;4.93;;;4.80;99.90;;;5.11;67.90;102366.91;5012363;28;20460;-80
2024/01/27 02:02:16;;;;;;;17.73;5.65;;;5.00;99.90;;;5.10;68.14;102376.66;4997718;28;20073;-80
2024/01/27 02:04:45;;;;;;;21.67;5.60;;;4.80;99.90;;;5.10;68.12;102371.38;4997823;28;20046;-80
2024/01/27 02:07:15;;;;;;;23.70;5.20;;;5.00;99.90;;;5.07;68.37;102381.34;5015699;28;20077;-80
2024/01/27 02:09:43;;;;;;;15.48;4.75;;;4.80;99.90;;;5.06;68.29;102382.34;5009159;28;20052;-80
2024/01/27 02:12:11;;;;;;;18.00;4.88;;;4.80;99.90;;;5.03;67.97;102383.44;5010509;28;20050;-80
2024/01/27 02:14:38;;;;;;;16.38;5.20;;;4.70;99.90;;;4.99;68.30;102384.66;4994916;28;20046;-80
2024/01/27 02:17:08;;;;;;;24.88;5.35;;;4.70;99.90;;;4.96;68.32;102379.63;5010514;28;20045;-80
2024/01/27 02:19:36;;;;;;;21.75;5.20;;;4.70;99.90;;;4.98;68.61;102385.63;5016768;28;20056;-80
2024/01/27 02:22:05;;;;;;;19.95;4.75;;;4.70;99.90;;;4.98;68.38;102390.91;4997863;28;20133;-80
2024/01/27 02:24:34;;;;;;;21.85;5.45;;;4.70;99.90;;;4.97;68.53;102391.03;5015658;28;20144;-80
2024/01/27 02:27:02;;;;;;;18.27;5.00;;;4.70;99.90;;;4.97;68.37;102388.38;4996920;28;20061;-80
2024/01/27 02:29:29;;;;;;;25.98;5.28;;;4.70;99.90;;;4.93;68.37;102384.31;5027140;28;20050;-80
2024/01/27 02:31:57;;;;;;;19.45;5.07;;;4.70;99.90;;;4.94;68.22;102372.78;4993552;28;20121;-80
2024/01/27 02:34:27;;;;;;;18.42;4.70;;;4.60;99.90;;;4.90;68.50;102375.69;4997179;28;20046;-80
2024/01/27 02:36:56;;;;;;;21.15;5.35;;;4.60;99.90;;;4.87;68.48;102375.91;5015433;28;20046;-80
2024/01/27 02:39:24;;;;;;;21.20;4.95;;;4.60;99.90;;;4.86;68.37;102378.69;4973101;28;20038;-80
2024/01/27 02:41:54;;;;;;;19.77;5.50;;;4.60;99.90;;;4.84;68.35;102385.94;5034503;28;20083;-80
2024/01/27 02:44:21;;;;;;;16.75;5.32;;;4.50;99.90;;;4.84;68.34;102386.75;5012272;28;20050;-80
2024/01/27 02:46:51;;;;;;;20.38;5.32;;;4.50;99.90;;;4.81;68.60;102381.72;4979534;28;20136;-80
2024/01/27 02:49:19;;;;;;;18.90;5.17;;;4.50;99.90;;;4.79;68.52;102388.94;5017577;28;20072;-80
2024/01/27 02:51:47;;;;;;;18.35;5.60;;;4.50;99.90;;;4.78;68.31;102374.06;5013657;28;20052;-80
2024/01/27 02:54:15;;;;;;;14.02;4.75;;;4.50;99.90;;;4.77;68.79;102382.09;4998064;28;20046;-80
2024/01/27 02:56:42;;;;;;;13.85;4.97;;;4.50;99.90;;;4.75;68.62;102387.53;5015206;28;20100;-80
2024/01/27 02:59:13;;;;;;;19.15;4.65;;;4.50;99.90;;;4.71;68.53;102383.44;5015140;28;20080;-80
2024/01/27 03:01:41;;;;;;;;;;;4.40;99.90;;;4.73;68.38;102388.59;5001363;28;20053;-80
2024/01/27 03:04:09;;;;;;;13.95;4.65;;;4.50;99.90;;;4.71;68.68;102382.59;5035158;28;19963;-80
2024/01/27 03:06:37;;;;;;;23.48;5.93;;;4.40;99.90;;;4.69;68.52;102380.09;5017426;28;20079;-80
2024/01/27 03:09:07;;;;;;;22.83;5.45;;;4.40;99.90;;;4.70;69.13;102383.59;5009996;28;20057;-80
2024/01/27 03:11:39;;;;;;;20.75;5.75;;;4.40;99.90;;;4.68;68.56;102381.03;4981855;28;20046;-80
2024/01/27 03:14:06;;;;;;;20.90;4.90;;;4.40;99.90;;;4.69;68.56;102385.38;4989807;28;20053;-80
2024/01/27 03:16:38;;;;;;;19.55;5.05;;;4.40;99.90;;;4.67;68.48;102383.81;4995937;28;20124;-80
2024/01/27 03:19:08;;;;;;;16.88;5.22;;;4.40;99.90;;;4.67;68.50;102386.47;5002394;28;20092;-80
2024/01/27 03:21:36;;;;;;;18.85;5.13;;;4.30;99.90;;;4.63;68.66;102389.34;5015211;28;20417;-80
2024/01/27 03:24:04;;;;;;;22.60;5.35;;;4.30;99.90;;;4.62;68.86;102387.66;4982307;28;20466;-80
2024/01/27 03:26:31;;;;;;;23.77;6.05;;;4.40;99.90;;;4.61;69.19;102393.09;4982107;28;20069;-80
2024/01/27 03:29:01;;;;;;;18.23;5.05;;;4.30;99.90;;;4.56;69.06;102385.53;4998709;28;20046;-80
2024/01/27 03:31:31;;;;;;;19.33;5.78;;;4.30;99.90;;;4.55;69.12;102378.56;4979720;28;20077;-80
2024/01/27 03:34:01;;;;;;;18.77;4.82;;;4.20;99.90;;;4.58;69.49;102380.94;4996664;28;20042;-80
2024/01/27 03:36:29;;;;;;;19.52;6.28;;;4.30;99.90;;;4.61;69.41;102386.00;4978531;28;20050;-80
2024/01/27 03:39:03;;;;;;;20.85;5.85;;;4.30;99.90;;;4.61;69.59;102380.72;4990005;28;20530;-80
2024/01/27 03:41:30;;;;;;;17.95;5.55;;;4.30;99.90;;;4.60;69.22;102380.84;5019123;28;20042;-80
2024/01/27 03:43:59;;;;;;;15.07;4.75;;;4.30;99.90;;;4.58;69.43;102391.53;5001752;28;20509;-80
2024/01/27 03:46:29;;;;;;;22.42;5.63;;;4.30;99.90;;;4.59;69.38;102381.81;4991983;28;20042;-80
2024/01/27 03:48:59;;;;;;;14.18;4.65;;;4.30;99.90;;;4.57;69.29;102386.38;5006413;28;20038;-80
2024/01/27 03:51:30;;;;;;;21.92;5.85;;;4.30;99.90;;;4.56;69.47;102390.81;4987077;28;20132;-80
2024/01/27 03:53:57;;;;;;;19.48;5.55;;;4.30;99.90;;;4.57;69.68;102394.28;5020438;28;20042;-80
2024/01/27 03:56:25;;;;;;;23.30;5.55;;;4.20;99.90;;;4.55;69.93;102407.63;5019485;28;20048;-80
2024/01/27 03:58:53;;;;;;;23.98;6.20;;;4.30;99.90;;;4.56;70.12;102401.38;5037695;28;20057;-80
2024/01/27 04:01:21;;;;;;;17.42;5.38;;;4.30;99.90;;;4.56;70.46;102409.31;5017206;28;20483;-80
2024/01/27 04:03:49;;;;;;;21.45;6.30;;;4.30;99.90;;;4.59;70.11;102413.53;4984566;28;20046;-80
2024/01/27 04:06:17;;;;;;;18.15;5.25;;;4.30;99.90;;;4.55;70.12;102406.81;4992208;28;20049;-80
2024/01/27 04:08:51;;;;;;;25.85;5.70;;;4.30;99.90;;;4.54;69.92;102405.97;5018034;28;20057;-80
2024/01/27 04:11:22;;;;;;;16.23;5.38;;;4.30;99.90;;;4.56;70.13;102409.31;5016741;28;20100;-80
2024/01/27 04:13:51;;;;;;;20.38;5.88;;;4.30;99.90;;;4.56;70.04;102411.13;5018316;28;20049;-80
2024/01/27 04:16:18;;;;;;;25.08;5.80;;;4.30;99.90;;;4.53;69.74;102420.13;5016891;28;20048;-80
2024/01/27 04:18:45;;;;;;;14.90;5.30;;;4.20;99.90;;;4.48;70.69;102411.72;5024600;28;20045;-80
2024/01/27 04:21:13;;;;;;;21.33;6.25;;;4.20;99.90;;;4.50;70.66;102414.25;5037482;28;20053;-80
2024/01/27 04:23:41;;;;;;;18.27;5.30;;;4.20;99.90;;;4.53;70.69;102428.03;5004000;28;20042;-80
2024/01/27 04:26:10;;;;;;;15.70;5.68;;;4.20;99.90;;;4.46;70.91;102424.22;5029947;28;20038;-80
2024/01/27 04:28:38;;;;;;;15.48;5.53;;;4.20;99.90;;;4.48;70.83;102424.94;5026468;28;20050;-80
2024/01/27 04:31:06;;;;;;;21.35;5.95;;;4.50;99.90;;;4.44;70.94;102415.59;5037463;28;20041;-80
2024/01/27 04:33:33;;;;;;;19.95;5.28;;;4.20;99.90;;;4.46;71.09;102418.09;5013564;28;20096;-80
2024/01/27 04:36:01;;;;;;;24.50;6.50;;;4.20;99.90;;;4.46;71.16;102416.31;4980938;28;20073;-80
2024/01/27 04:38:30;;;;;;;18.58;5.88;;;4.20;99.90;;;4.47;71.13;102419.78;4987975;28;20480;-80
2024/01/27 04:44:43;;;;;;;19.38;5.85;;;4.20;99.90;;;4.49;70.67;102413.44;5005072;28;20061;-80
2024/01/27 04:47:19;;;;;;;20.52;6.63;;;4.20;99.90;;;4.50;70.78;102415.09;5000439;28;20128;-80
2024/01/27 04:49:46;;;;;;;20.95;6.07;;;4.30;99.90;;;4.49;70.57;102413.44;5011089;28;20053;-80
2024/01/27 04:52:14;;;;;;;18.83;6.38;;;4.20;99.90;;;4.46;70.56;102412.81;4999556;28;20477;-80
2024/01/27 04:54:41;;;;;;;19.42;6.25;;;4.20;99.90;;;4.47;70.30;102423.25;5000675;28;20407;-80
2024/01/27 04:57:09;;;;;;;19.45;6.88;;;4.20;99.90;;;4.47;70.90;102425.91;5018108;28;20088;-80
2024/01/27 04:59:37;;;;;;;22.63;5.82;;;4.20;99.90;;;4.48;70.72;102414.38;4999791;28;20046;-80
2024/01/27 05:02:09;;;;;;;25.40;6.57;;;4.20;99.90;;;4.49;70.13;102421.34;5006266;28;20081;-80
2024/01/27 05:04:38;;;;;;;26.42;7.03;;;4.20;99.90;;;4.49;70.57;102428.41;4998118;28;20084;-80
2024/01/27 05:07:08;;;;;;;26.38;6.28;;;4.20;99.90;;;4.47;70.29;102433.81;5005043;28;20378;-80
2024/01/27 05:09:38;;;;;;;23.15;6.78;;;4.20;99.90;;;4.48;70.74;102426.75;4967042;28;20058;-80
2024/01/27 05:12:10;;;;;;;15.65;5.97;;;4.20;99.90;;;4.46;70.48;102424.22;5014788;28;20046;-80
2024/01/27 05:14:45;;;;;;;;;;;4.20;99.90;;;4.44;70.42;102415.59;4991536;28;20498;-79
2024/01/27 05:17:13;;;;;;;22.23;7.25;;;4.20;99.90;;;4.39;70.85;102417.75;4998414;28;19921;-80
2024/01/27 05:22:46;;;;;;;25.27;8.98;;;4.20;99.90;;;4.44;70.58;102409.44;4985265;28;20045;-80
2024/01/27 05:25:16;;;;;;;23.83;9.13;;;4.20;99.90;;;4.40;70.37;102406.25;4998753;28;20073;-80
2024/01/27 05:27:44;;;;;;;34.58;13.50;;;4.20;99.90;;;4.38;70.41;102410.78;5000192;28;20049;-79
2024/01/27 05:30:13;;;;;;;31.52;10.90;;;4.20;99.90;;;4.38;70.39;102401.06;4985317;28;20049;-80
2024/01/27 05:32:42;;;;;;;22.08;8.48;;;4.20;99.90;;;4.37;70.28;102415.22;5036568;28;20125;-80
2024/01/27 05:35:14;;;;;;;15.82;6.47;;;4.20;99.90;;;4.37;70.30;102409.13;5035955;28;20460;-80
2024/01/27 05:37:41;;;;;;;23.83;7.03;;;4.10;99.90;;;4.35;70.13;102405.75;5001063;28;20060;-80
2024/01/27 05:40:10;;;;;;;20.88;6.28;;;4.10;99.90;;;4.31;70.24;102415.72;5016821;28;20069;-80
2024/01/27 05:42:40;;;;;;;19.90;6.13;;;4.10;99.90;;;4.21;70.34;102404.22;4999692;28;20037;-80
2024/01/27 05:45:11;;;;;;;21.02;7.13;;;4.00;99.90;;;4.17;71.52;102407.22;5016238;28;20132;-80
2024/01/27 05:47:38;;;;;;;;;;;4.00;99.90;;;4.23;71.20;102404.09;4998556;28;20045;-80
2024/01/27 05:50:09;;;;;;;20.17;7.20;;;4.10;99.90;;;4.18;70.97;102420.28;4982468;28;19961;-79
2024/01/27 05:52:37;;;;;;;;;;;4.00;99.90;;;4.20;71.12;102412.25;4998980;28;20052;-79
2024/01/27 05:55:06;;;;;;;19.73;5.88;;;3.90;99.90;;;4.22;71.09;102410.34;5005006;28;19926;-80
2024/01/27 05:57:34;;;;;;;19.75;5.72;;;4.00;99.90;;;4.21;70.80;102422.72;4966563;28;20505;-80
2024/01/27 06:00:02;;;;;;;20.15;6.40;;;4.00;99.90;;;4.21;70.89;102419.22;4999373;28;20413;-80
2024/01/27 06:02:32;;;;;;;16.40;5.35;;;4.00;99.90;;;4.20;70.85;102417.53;5015476;28;20050;-80
2024/01/27 06:04:59;;;;;;;20.83;6.68;;;4.00;99.90;;;4.20;70.67;102420.16;4998126;28;20060;-80
2024/01/27 06:07:41;;;;;;;20.67;5.72;;;4.00;99.90;;;4.17;70.70;102423.06;5008937;28;20445;-80
2024/01/27 06:10:10;;;;;;;21.20;5.63;;;4.10;99.90;;;4.15;71.02;102420.56;5012976;28;20049;-80
2024/01/27 06:12:39;;;;;;;20.98;5.85;;;3.90;99.90;;;4.17;71.11;102418.63;4963059;28;20561;-80
2024/01/27 06:15:08;;;;;;;19.98;5.88;;;3.90;99.90;;;4.18;71.33;102422.94;4978871;28;20038;-80
2024/01/27 06:17:36;;;;;;;20.67;6.25;;;3.90;99.90;;;4.16;71.20;102426.66;5011937;28;20050;-80
2024/01/27 06:20:04;;;;;;;30.40;6.10;;;3.90;99.90;;;4.14;70.92;102416.22;5005178;28;20058;-80
2024/01/27 06:30:59;;;;;;;26.23;8.57;;;4.00;99.90;;;4.14;71.11;102421.50;4955633;29;20448;-80
2024/01/27 06:33:28;;;;;;;23.25;6.60;;;4.00;99.90;;;4.12;70.84;102424.25;4943728;29;20059;-80
2024/01/27 06:35:56;;;;;;;19.88;5.72;;;3.90;99.90;;;4.14;71.21;102424.97;4956550;28;20043;-80
2024/01/27 06:38:24;;;;;;;17.60;6.35;;;3.90;99.90;;;4.14;71.06;102432.88;5001818;28;20157;-86
2024/01/27 06:40:52;;;;;;;18.40;6.00;;;3.90;99.90;;;4.14;71.05;102430.25;4996147;28;20077;-87
2024/01/27 06:43:21;;;;;;;24.40;5.82;;;3.90;99.90;;;4.14;70.98;102432.88;4975956;28;20045;-87
2024/01/27 06:45:49;;;;;;;17.92;6.68;;;3.90;99.90;;;4.15;71.02;102439.03;4979158;28;20042;-87
2024/01/27 06:48:17;;;;;;;21.70;6.20;;;3.90;99.90;;;4.16;71.06;102434.59;5000628;28;20490;-87
2024/01/27 06:50:45;;;;;;;23.08;6.90;;;3.90;99.90;;;4.13;70.81;102431.22;4995950;28;20051;-88
2024/01/27 06:53:13;;;;;;;30.35;6.75;;;3.90;99.90;;;4.10;70.94;102434.13;4991135;28;20042;-88
2024/01/27 06:55:41;;;;;;;18.00;6.10;;;3.90;99.90;;;4.11;70.55;102435.78;5006170;28;20567;-87
2024/01/27 07:01:32;;;;;;;22.33;5.65;;;3.90;99.90;;;4.08;70.93;102449.22;5024648;22;20128;-86
2024/01/27 07:04:00;;;;;;;19.35;6.10;;;3.80;99.90;;;4.07;70.93;102439.63;4998779;28;20065;-88
2024/01/27 07:06:30;;;;;;;24.95;5.93;;;3.90;99.90;;;4.07;70.71;102462.56;4974952;28;20134;-87
2024/01/27 07:08:58;;;;;;;26.77;5.90;;;3.90;99.90;;;4.04;70.96;102458.34;4975152;28;20044;-87
2024/01/27 07:11:25;;;;;;;19.55;5.82;;;3.80;99.90;;;4.05;71.51;102462.69;5021595;23;20046;-83
2024/01/27 07:13:55;;;;;;;20.08;5.82;;;3.90;99.90;;;4.06;71.06;102460.88;5018931;28;20069;-83
2024/01/27 07:16:26;;;;;;;22.52;6.55;;;3.90;99.90;;;4.07;71.27;102466.03;5021660;28;20460;-84
2024/01/27 07:18:53;;;;;;;19.42;5.72;;;3.90;99.90;;;4.06;71.06;102461.72;5023026;28;20041;-84
2024/01/27 07:21:21;;;;;;;24.40;5.45;;;3.90;99.90;;;4.04;71.38;102460.97;5005201;28;20469;-83
2024/01/27 07:23:48;;;;;;;19.02;5.82;;;3.90;99.90;;;4.05;71.31;102461.81;4994441;28;20120;-82
2024/01/27 07:26:17;;;;;;;19.73;6.03;;;3.90;99.90;;;4.04;71.42;102468.06;5002615;28;20035;-82
2024/01/27 07:28:45;;;;;;;16.80;5.82;;;3.90;99.90;;;4.04;71.26;102479.47;4984228;28;20145;-83
2024/01/27 07:31:15;;;;;;;20.67;5.95;;;3.90;99.90;;;4.03;71.23;102477.78;5003095;28;20065;-80
2024/01/27 07:33:42;;;;;;;20.53;6.20;;;3.80;99.90;;;4.05;71.19;102480.28;5002484;28;20042;-80
2024/01/27 07:36:11;;;;;;;18.05;6.13;;;3.80;99.90;;;4.03;71.08;102471.66;4975506;28;20037;-80
2024/01/27 07:38:39;;;;;;;24.30;6.35;;;3.80;99.90;;;4.02;71.41;102468.19;4984005;28;20505;-82
2024/01/27 07:41:06;;;;;;;16.00;5.53;;;3.80;99.90;;;3.99;71.80;102481.63;4981971;28;20078;-82
2024/01/27 07:43:34;;;;;;;19.67;6.30;;;3.80;99.90;;;4.03;71.39;102485.69;5012617;28;20420;-81
2024/01/27 07:46:04;;;;;;;20.60;5.65;;;3.80;99.90;;;4.07;71.28;102481.03;4981731;28;20133;-82
2024/01/27 07:48:32;;;;;;;21.10;6.35;;;3.90;99.90;;;4.05;71.84;102496.13;4989454;28;20046;-81
2024/01/27 07:51:02;;;;;;;23.52;6.38;;;3.80;99.90;;;4.08;71.72;102493.28;5003211;28;20053;-81
2024/01/27 07:53:29;;;;;;;25.48;6.93;;;3.90;99.90;;;4.05;71.18;102497.00;5019411;28;20109;-80
2024/01/27 07:55:57;;;;;;;19.80;6.55;;;3.90;99.90;;;4.10;71.42;102494.00;5010817;28;20050;-80
2024/01/27 07:58:24;;;;;;;23.67;5.80;;;3.90;99.90;;;4.13;71.35;102494.59;4985304;28;20046;-80
2024/01/27 08:00:52;;;;;;;19.30;6.35;;;4.00;99.90;;;4.11;71.46;102485.97;5001557;28;20043;-80
2024/01/27 08:03:19;;;;;;;26.90;6.68;;;4.00;99.90;;;4.14;71.58;102492.78;4983937;28;20129;-80
2024/01/27 08:05:49;;;;;;;25.73;6.40;;;4.00;99.90;;;4.17;71.13;102489.06;4984210;28;20047;-80
2024/01/27 08:08:16;;;;;;;25.77;6.80;;;4.00;99.90;;;4.16;71.64;102493.53;4983945;28;20042;-81
2024/01/27 08:10:43;;;;;;;24.85;6.53;;;4.00;99.90;;;4.20;71.74;102499.38;5000884;28;20101;-80
2024/01/27 08:13:11;;;;;;;17.63;5.82;;;4.00;99.90;;;4.19;71.62;102505.63;5001209;28;20053;-80
2024/01/27 08:15:38;;;;;;;26.70;6.80;;;4.10;99.90;;;4.19;71.75;102503.81;4966854;28;20081;-81
2024/01/27 08:18:06;;;;;;;25.48;6.00;;;4.10;99.90;;;4.21;71.28;102501.09;5000481;28;20042;-82
2024/01/27 08:20:34;;;;;;;19.33;5.93;;;4.10;99.90;;;4.24;71.58;102500.84;4982569;28;20046;-81
2024/01/27 08:23:03;;;;;;;25.23;6.53;;;4.10;99.90;;;4.26;71.58;102498.94;5000440;28;20198;-81
2024/01/27 08:25:30;;;;;;;20.17;5.78;;;4.10;99.90;;;4.25;71.65;102499.91;4982219;28;20512;-81
2024/01/27 08:27:58;;;;;;;28.13;6.65;;;4.10;99.90;;;4.14;71.54;102503.34;4982629;28;20046;-81
2024/01/27 08:30:25;;;;;;;23.98;6.57;;;4.10;99.90;;;4.21;71.54;102499.28;5000404;28;20046;-80
2024/01/27 08:32:53;;;;;;;27.65;8.05;;;4.10;99.90;;;4.21;71.68;102495.81;4982390;28;20407;-81
2024/01/27 08:35:21;;;;;;;22.52;5.78;;;4.20;99.90;;;4.26;72.16;102505.03;4983663;28;20035;-81
2024/01/27 08:37:49;;;;;;;27.80;5.80;;;4.20;99.90;;;4.23;72.01;102505.28;4983096;28;20061;-82
2024/01/27 08:40:18;;;;;;;23.20;5.78;;;4.20;99.90;;;4.26;71.69;102506.84;5001045;28;20054;-82
2024/01/27 08:42:46;;;;;;;14.73;5.45;;;4.30;99.90;;;4.25;72.13;102505.19;5001084;28;20450;-81
2024/01/27 08:45:14;;;;;;;28.38;6.18;;;4.30;99.90;;;4.27;71.86;102503.25;4983968;28;20042;-81
2024/01/27 08:47:42;;;;;;;18.98;5.70;;;4.30;99.90;;;4.27;72.03;102508.53;5001044;28;20042;-82
2024/01/27 08:50:11;;;;;;;26.55;6.57;;;4.30;99.90;;;4.36;71.80;102513.09;4983827;28;20069;-82
2024/01/27 08:52:39;;;;;;;19.13;5.88;;;4.40;99.90;;;4.37;71.48;102525.34;4951054;28;20133;-81
2024/01/27 08:55:07;;;;;;;23.35;6.50;;;4.40;99.90;;;4.33;72.13;102523.88;5000509;28;20543;-83
2024/01/27 08:57:36;;;;;;;20.80;5.45;;;4.40;99.90;;;4.35;71.39;102525.47;5000836;28;20038;-83
2024/01/27 09:00:05;;;;;;;27.00;5.57;;;4.40;99.90;;;4.20;72.06;102528.44;5000991;28;20112;-82
2024/01/27 09:02:36;;;;;;;27.27;6.10;;;4.40;99.90;;;4.22;71.75;102515.97;5001303;28;20050;-85
2024/01/27 09:05:05;;;;;;;21.15;6.55;;;4.40;99.90;;;4.20;72.56;102524.03;5000997;28;20046;-84
2024/01/27 09:07:32;;;;;;;21.38;6.38;;;4.40;99.90;;;4.23;72.04;102522.94;5000427;28;20125;-84
2024/01/27 09:10:00;;;;;;;25.38;6.70;;;4.40;99.90;;;4.30;72.34;102510.94;4983605;28;20046;-84
2024/01/27 09:12:28;;;;;;;24.15;7.25;;;4.40;99.90;;;4.36;72.29;102507.81;5001367;28;20077;-81
2024/01/27 09:14:57;;;;;;;25.33;7.00;;;4.40;99.90;;;4.29;71.86;102509.25;5000059;28;20070;-80
2024/01/27 09:17:25;;;;;;;20.83;6.65;;;4.50;99.90;;;4.31;72.14;102504.69;4999017;28;20102;-82
2024/01/27 09:19:54;;;;;;;26.48;7.28;;;4.50;99.90;;;4.33;72.70;102513.31;4964525;28;20043;-82
2024/01/27 09:22:21;;;;;;;28.27;7.97;;;4.50;99.90;;;4.48;72.76;102511.28;4981233;28;20052;-80
2024/01/27 09:24:49;;;;;;;26.23;7.50;;;4.60;99.90;;;4.40;71.91;102517.19;4981221;28;20391;-80
2024/01/27 09:27:17;;;;;;;31.25;8.43;;;4.60;99.90;;;4.40;72.11;102509.25;4981371;28;20429;-81
2024/01/27 09:29:44;;;;;;;28.50;8.60;;;4.60;99.90;;;4.47;72.03;102515.72;4997913;28;20046;-80
2024/01/27 09:32:13;;;;;;;34.60;8.15;;;4.70;99.90;;;4.54;72.21;102511.66;4997383;28;20502;-81
2024/01/27 09:34:40;;;;;;;33.20;8.80;;;4.70;99.90;;;4.59;72.31;102500.72;4981671;28;20069;-81
2024/01/27 09:37:08;;;;;;;30.08;8.38;;;4.80;99.90;;;4.67;72.38;102511.50;4998475;28;20078;-80
2024/01/27 09:39:35;;;;;;;30.30;8.13;;;4.80;99.90;;;4.77;72.33;102506.31;4980912;28;20054;-81
2024/01/27 09:42:08;;;;;;;23.05;5.40;;;5.00;99.90;;;4.78;72.02;102495.66;4949096;28;20046;-80
2024/01/27 09:44:37;;;;;;;25.85;5.72;;;5.00;99.90;;;4.78;71.70;102494.78;4965332;28;20502;-81
2024/01/27 09:47:05;;;;;;;21.58;5.88;;;5.00;99.90;;;4.82;71.78;102493.56;4998427;28;20049;-81
2024/01/27 09:49:35;;;;;;;21.83;5.65;;;5.00;99.90;;;4.79;71.44;102497.31;4998103;28;20129;-81
2024/01/27 09:52:03;;;;;;;23.15;5.70;;;5.00;99.90;;;4.74;71.01;102499.50;4980687;28;20465;-81
2024/01/27 09:54:30;;;;;;;21.40;4.93;;;5.00;99.90;;;4.77;72.09;102503.69;4980330;28;20137;-80
2024/01/27 09:56:59;;;;;;;24.58;5.68;;;5.00;99.90;;;4.80;71.67;102508.72;4998118;28;20050;-81
2024/01/27 09:59:27;;;;;;;24.27;6.03;;;5.10;99.90;;;4.84;71.67;102512.81;4980647;28;20454;-80
2024/01/27 10:01:55;;;;;;;23.08;5.88;;;5.10;99.90;;;4.87;71.57;102515.19;4998453;28;20068;-81
2024/01/27 10:04:25;;;;;;;23.20;5.20;;;5.10;99.90;;;4.91;71.50;102514.81;4981174;28;20051;-81
2024/01/27 10:06:55;;;;;;;21.65;6.30;;;5.20;99.90;;;4.98;71.57;102520.47;4980290;28;20089;-81
2024/01/27 10:09:22;;;;;;;24.90;6.07;;;5.20;99.90;;;4.99;71.30;102521.31;4981017;28;20050;-82
2024/01/27 10:11:50;;;;;;;23.27;5.50;;;5.20;99.90;;;5.01;71.14;102522.84;4998346;28;20046;-82
2024/01/27 10:14:18;;;;;;;20.75;6.25;;;5.30;99.90;;;5.08;71.51;102528.50;4980325;28;20104;-83
2024/01/27 10:16:47;;;;;;;36.80;6.18;;;5.30;99.90;;;5.10;71.29;102524.75;4998823;28;20042;-83
2024/01/27 10:19:18;;;;;;;25.17;5.43;;;5.40;99.90;;;5.13;71.27;102531.63;4981957;28;20042;-84
2024/01/27 10:21:46;;;;;;;19.85;5.72;;;5.40;99.90;;;5.19;71.57;102533.75;4998621;28;20053;-82
2024/01/27 10:24:14;;;;;;;17.30;5.10;;;5.40;99.90;;;5.21;71.78;102534.47;4998472;28;20046;-82
2024/01/27 10:26:42;;;;;;;26.90;5.85;;;5.50;99.90;;;5.26;71.27;102528.78;4980536;28;20486;-82
2024/01/27 10:29:10;;;;;;;20.52;5.50;;;5.60;99.90;;;5.30;70.94;102533.72;4964833;28;20576;-82
2024/01/27 10:31:38;;;;;;;28.73;6.88;;;5.60;99.90;;;5.35;71.01;102536.81;4932511;28;20077;-83
2024/01/27 10:34:14;;;;;;;20.42;5.00;;;5.60;99.90;;;5.32;70.83;102537.09;4981253;28;20133;-83
2024/01/27 10:36:44;;;;;;;26.83;4.90;;;5.60;99.90;;;5.35;71.05;102534.16;4998051;28;20074;-83
2024/01/27 10:39:22;;;;;;;22.55;5.15;;;5.60;99.90;;;5.42;71.42;102537.19;4997113;28;20069;-83
2024/01/27 10:41:54;;;;;;;23.75;5.20;;;5.70;99.90;;;5.48;71.42;102533.19;4980124;28;20054;-81
2024/01/27 10:44:21;;;;;;;23.98;5.43;;;5.70;99.90;;;5.52;70.31;102537.25;4963982;28;20070;-80